ADDS TAF Board (Experimental) INFO Settings
IDs: Format: Expanded Condensed

KDFW - Dallas-Ft Worth Intl, TX, US

Issued at 1738 UTC 24 May 2016
Updated at: 1932 UTC 24 May 2016
Time1853Z 24/20Z 24/21Z 24/22Z 24/23Z 25/00Z 25/01Z 25/02Z 25/03Z 25/04Z 25/05Z 25/06Z 25/07Z 25/08Z
Type OBS PRVL PRVL PRVL PRVL PRVL PRVL PRVL PRVL PRVL PRVL PRVL PRVL PRVL
VIS 10 >6 >6 >6 >6 >6 >6 >6 >6 >6 >6 >6 >6 >6
CIG 44 35 35 35 35 40 40 35 35 35 35 35 35 10
Cover OVC BKN BKN BKN BKN BKN BKN BKN BKN BKN BKN BKN BKN OVC
FltCat VFR VFR VFR VFR VFR VFR VFR VFR VFR VFR VFR VFR VFR MVFR
WX -- -- -- -- -- VCSH VCSH -- -- -- -- -- -- --
WDir 140 160 160 160 160 150 150 160 160 160 160 160 160 180
WSpd 14 14 14 14 14 13 13 11 11 11 11 11 11 13
WGst -- -- -- -- -- -- -- -- -- -- -- -- -- --
R13/31
XWnd -1 -6 -6 -6 -6 -3 -3 -5 -5 -5 -5 -5 -5 -9
HWnd 14 13 13 13 13 13 13 10 10 10 10 10 10 9
R17/35
XWnd 9 5 5 5 5 7 7 4 4 4 4 4 4 0
HWnd 11 13 13 13 13 11 11 10 10 10 10 10 10 13
R18/36
XWnd 9 5 5 5 5 7 7 4 4 4 4 4 4 0
HWnd 11 13 13 13 13 11 11 10 10 10 10 10 10 13

NOTE: TEMPO conditions in [brackets]. Keep in mind TEMPO conditions might be better (lower impact) than prevailing conditions.

Raw TAF
KDFW 241738Z 2418/2524 17015KT P6SM BKN025
  FM241900 16014KT P6SM BKN035
  FM250000 15013KT P6SM VCSH BKN040
  FM250200 16011KT P6SM FEW020 BKN035
  FM250800 18013KT P6SM OVC010
  FM251700 17013KT P6SM BKN025


Raw METAR
KDFW 241853Z COR 14014KT 10SM FEW030 OVC044 28/22 A2994 RMK AO2 SLP130 T02830217
KDFW 241753Z 16013KT 10SM FEW015 SCT021 SCT034 28/22 A2995 RMK AO2 SLP134 60001 T02830222 10283 20233 58003
KDFW 241717Z 15010KT 10SM FEW016 SCT021 OVC033 26/22 A2997 RMK AO2 T02610222
KDFW 241653Z 17009KT 6SM HZ FEW011 BKN028 OVC033 24/22 A2997 RMK AO2 RAE1556B40E53 SLP141 P0000 T02440217
KDFW 241640Z 16008KT 7SM -RA SCT011 BKN027 OVC041 25/22 A2997 RMK AO2 RAE1556B40 P0000 T02500222

METAR Board
Radar Display
Forecast Discussion

TAF Board Legend

Potential Impact
Threat None Slight Moderate High
Visibility (sm) ≥5.1 5.1>X≥3 3>X≥1 <1
Ceiling (100 ft) ≥30.1 30.1>X≥10 10>X≥5 <5
Wind Speed (kt) <10 10≤X<20 20≤X<30 ≥30
Wind Gust (kt) <15 15≤X<25 25≤X<35 ≥35
Weather No Wx Reported VCTS,-TS,-FZRA,SN TS,FZRA +TS,+FZRA,+SN